首页
METAR-TAF:

METAR-TAF

机场 :

萨尔布吕肯机场

萨尔布吕肯, 德国

纬度: 49-13N, 经度: 007-07E, 海拔: 322米

当前天气观测

该预报发布于32分钟前的03:20 UTC
风速6节,风向
温度 1°C
湿度 100%
气压 1000 hPa
能见度10公里或以上
少量云层高于1700英尺

METAR: EDDR 140320Z 08006KT 9999 FEW017 01/01 Q1000 NOSIG

时间: 04:52 (03:52 UTC)

预报

该预报发布于4小时和4分钟前的23:48 UTC
预报有效从14日的 00点(UTC)到 14日的 24点(UTC)
风速6节,风向南转南东
能见度10公里或以上
多云层高于1000英尺
成为
从 14日的 01点(UTC)到 14日的 03点(UTC)
风速6节,风向
散云层高于1500英尺
几率 30% :
短暂存在
从 14日的 03点(UTC)到 14日的 08点(UTC)
能見度: 3000
碎片雾
成为
从 14日的 15点(UTC)到 14日的 17点(UTC)
风速7节,风向东北

TAF: EDDR 132348Z 1400/1424 16006KT 9999 BKN010 BECMG 1401/1403 10006KT SCT015 PROB30 TEMPO 1403/1408 3000 BCFG BECMG 1415/1417 04007KT

超过4000个机场的气象观测和天气预报(METAR&TAF报告)。

可查询的气象台以黄色和红色小点在地图上表示。

将鼠标移到小点上方,可查看气象台名称。

然后点击查看天气观测和预报。

如需切换地图:点击带黑十字的绿色按钮放大地图;点击带横线的绿色按钮缩小地图;或者点击绿色箭头查看邻近地区的地图。


METAR-TAF: